sensor_id;sensor_type;location;lat;lon;timestamp;temperature;humidity
57264;DHT22;43113;53.124;6.092;2022-11-20T00:01:26;-1.20;99.90
57264;DHT22;43113;53.124;6.092;2022-11-20T00:03:53;-1.20;99.90
57264;DHT22;43113;53.124;6.092;2022-11-20T00:06:20;-1.30;99.90
57264;DHT22;43113;53.124;6.092;2022-11-20T00:08:47;-1.20;99.90
57264;DHT22;43113;53.124;6.092;2022-11-20T00:11:18;0.50;99.90
57264;DHT22;43113;53.124;6.092;2022-11-20T00:13:46;-1.30;99.90
57264;DHT22;43113;53.124;6.092;2022-11-20T00:16:13;-1.30;99.90
57264;DHT22;43113;53.124;6.092;2022-11-20T00:18:40;-0.30;99.90
57264;DHT22;43113;53.124;6.092;2022-11-20T00:21:13;0.50;99.90
57264;DHT22;43113;53.124;6.092;2022-11-20T00:23:39;-1.30;99.90
57264;DHT22;43113;53.124;6.092;2022-11-20T00:26:10;-0.20;99.90
57264;DHT22;43113;53.124;6.092;2022-11-20T00:28:36;0.30;99.90
57264;DHT22;43113;53.124;6.092;2022-11-20T00:31:06;-1.20;99.90
57264;DHT22;43113;53.124;6.092;2022-11-20T00:33:32;-1.10;99.90
57264;DHT22;43113;53.124;6.092;2022-11-20T00:36:06;-1.20;99.90
57264;DHT22;43113;53.124;6.092;2022-11-20T00:38:33;-1.10;99.90
57264;DHT22;43113;53.124;6.092;2022-11-20T00:41:00;0.20;99.90
57264;DHT22;43113;53.124;6.092;2022-11-20T00:43:26;-1.10;99.90
57264;DHT22;43113;53.124;6.092;2022-11-20T00:45:59;-1.20;99.90
57264;DHT22;43113;53.124;6.092;2022-11-20T00:48:25;-1.20;99.90
57264;DHT22;43113;53.124;6.092;2022-11-20T00:50:51;-1.10;99.90
57264;DHT22;43113;53.124;6.092;2022-11-20T00:56:13;-1.10;99.90
57264;DHT22;43113;53.124;6.092;2022-11-20T00:58:40;-1.20;99.90
57264;DHT22;43113;53.124;6.092;2022-11-20T01:01:11;0.80;99.90
57264;DHT22;43113;53.124;6.092;2022-11-20T01:03:39;-1.20;99.90
57264;DHT22;43113;53.124;6.092;2022-11-20T01:06:08;-1.20;99.90
57264;DHT22;43113;53.124;6.092;2022-11-20T01:08:35;-1.30;99.90
57264;DHT22;43113;53.124;6.092;2022-11-20T01:11:03;0.00;99.90
57264;DHT22;43113;53.124;6.092;2022-11-20T01:13:30;-1.00;99.90
57264;DHT22;43113;53.124;6.092;2022-11-20T01:16:22;-1.30;99.90
57264;DHT22;43113;53.124;6.092;2022-11-20T01:18:50;-1.40;99.90
57264;DHT22;43113;53.124;6.092;2022-11-20T01:21:31;-1.30;99.90
57264;DHT22;43113;53.124;6.092;2022-11-20T01:23:57;-1.30;99.90
57264;DHT22;43113;53.124;6.092;2022-11-20T01:26:25;0.40;99.90
57264;DHT22;43113;53.124;6.092;2022-11-20T01:28:51;-0.70;99.90
57264;DHT22;43113;53.124;6.092;2022-11-20T01:33:49;-1.20;99.90
57264;DHT22;43113;53.124;6.092;2022-11-20T01:36:16;-0.70;99.90
57264;DHT22;43113;53.124;6.092;2022-11-20T01:38:43;-1.20;99.90
57264;DHT22;43113;53.124;6.092;2022-11-20T01:41:09;-1.20;99.90
57264;DHT22;43113;53.124;6.092;2022-11-20T01:43:36;-1.20;99.90
57264;DHT22;43113;53.124;6.092;2022-11-20T01:46:19;-1.10;99.90
57264;DHT22;43113;53.124;6.092;2022-11-20T01:49:04;-1.10;99.90
57264;DHT22;43113;53.124;6.092;2022-11-20T01:51:44;-1.10;99.90
57264;DHT22;43113;53.124;6.092;2022-11-20T01:54:34;-1.10;99.90
57264;DHT22;43113;53.124;6.092;2022-11-20T01:57:02;-2.10;99.90
57264;DHT22;43113;53.124;6.092;2022-11-20T01:59:29;-1.00;99.90
57264;DHT22;43113;53.124;6.092;2022-11-20T02:01:55;0.90;99.90
57264;DHT22;43113;53.124;6.092;2022-11-20T02:04:22;-1.00;99.90
57264;DHT22;43113;53.124;6.092;2022-11-20T02:07:00;0.70;99.90
57264;DHT22;43113;53.124;6.092;2022-11-20T02:09:27;0.60;99.90
57264;DHT22;43113;53.124;6.092;2022-11-20T02:11:53;1.00;99.90
57264;DHT22;43113;53.124;6.092;2022-11-20T02:14:20;-1.20;99.90
57264;DHT22;43113;53.124;6.092;2022-11-20T02:16:48;-0.80;99.90
57264;DHT22;43113;53.124;6.092;2022-11-20T02:19:24;-0.80;99.90
57264;DHT22;43113;53.124;6.092;2022-11-20T02:22:16;-0.80;99.90
57264;DHT22;43113;53.124;6.092;2022-11-20T02:24:44;-0.80;99.90
57264;DHT22;43113;53.124;6.092;2022-11-20T02:27:13;-0.70;99.90
57264;DHT22;43113;53.124;6.092;2022-11-20T02:29:51;-0.70;99.90
57264;DHT22;43113;53.124;6.092;2022-11-20T02:32:30;-0.70;99.90
57264;DHT22;43113;53.124;6.092;2022-11-20T02:34:56;-0.70;99.90
57264;DHT22;43113;53.124;6.092;2022-11-20T02:37:22;-0.60;99.90
57264;DHT22;43113;53.124;6.092;2022-11-20T02:39:51;-0.60;99.90
57264;DHT22;43113;53.124;6.092;2022-11-20T02:42:17;-0.60;99.90
57264;DHT22;43113;53.124;6.092;2022-11-20T02:44:43;-0.60;99.90
57264;DHT22;43113;53.124;6.092;2022-11-20T02:47:09;-0.40;99.90
57264;DHT22;43113;53.124;6.092;2022-11-20T02:49:35;-0.40;99.90
57264;DHT22;43113;53.124;6.092;2022-11-20T02:52:01;-0.50;99.90
57264;DHT22;43113;53.124;6.092;2022-11-20T02:54:26;-0.40;99.90
57264;DHT22;43113;53.124;6.092;2022-11-20T02:56:52;-0.60;99.90
57264;DHT22;43113;53.124;6.092;2022-11-20T02:59:18;-0.50;99.90
57264;DHT22;43113;53.124;6.092;2022-11-20T03:01:44;-0.50;99.90
57264;DHT22;43113;53.124;6.092;2022-11-20T03:04:09;-0.50;99.90
57264;DHT22;43113;53.124;6.092;2022-11-20T03:06:35;1.00;99.90
57264;DHT22;43113;53.124;6.092;2022-11-20T03:09:01;1.00;99.90
57264;DHT22;43113;53.124;6.092;2022-11-20T03:11:26;-0.40;99.90
57264;DHT22;43113;53.124;6.092;2022-11-20T03:13:52;-0.40;99.90
57264;DHT22;43113;53.124;6.092;2022-11-20T03:16:20;0.10;99.90
57264;DHT22;43113;53.124;6.092;2022-11-20T03:18:46;0.80;99.90
57264;DHT22;43113;53.124;6.092;2022-11-20T03:21:13;0.30;99.90
57264;DHT22;43113;53.124;6.092;2022-11-20T03:23:39;-0.40;99.90
57264;DHT22;43113;53.124;6.092;2022-11-20T03:28:34;1.00;99.90
57264;DHT22;43113;53.124;6.092;2022-11-20T03:31:06;0.80;99.90
57264;DHT22;43113;53.124;6.092;2022-11-20T03:33:32;-0.30;99.90
57264;DHT22;43113;53.124;6.092;2022-11-20T03:36:04;-0.30;99.90
57264;DHT22;43113;53.124;6.092;2022-11-20T03:38:31;-0.30;99.90
57264;DHT22;43113;53.124;6.092;2022-11-20T03:41:27;-0.20;99.90
57264;DHT22;43113;53.124;6.092;2022-11-20T03:46:22;-0.30;99.90
57264;DHT22;43113;53.124;6.092;2022-11-20T03:48:48;-0.30;99.90
57264;DHT22;43113;53.124;6.092;2022-11-20T03:51:16;-0.20;99.90
57264;DHT22;43113;53.124;6.092;2022-11-20T03:53:44;-0.20;99.90
57264;DHT22;43113;53.124;6.092;2022-11-20T03:56:11;-0.30;99.90
57264;DHT22;43113;53.124;6.092;2022-11-20T03:58:38;0.30;99.90
57264;DHT22;43113;53.124;6.092;2022-11-20T04:01:09;0.00;99.90
57264;DHT22;43113;53.124;6.092;2022-11-20T04:03:37;-0.20;99.90
57264;DHT22;43113;53.124;6.092;2022-11-20T04:06:05;-0.20;99.90
57264;DHT22;43113;53.124;6.092;2022-11-20T04:08:31;0.00;99.90
57264;DHT22;43113;53.124;6.092;2022-11-20T04:11:49;-0.20;99.90
57264;DHT22;43113;53.124;6.092;2022-11-20T04:13:58;-0.20;99.90
57264;DHT22;43113;53.124;6.092;2022-11-20T04:16:25;1.10;99.90
57264;DHT22;43113;53.124;6.092;2022-11-20T04:18:52;-0.30;99.90
57264;DHT22;43113;53.124;6.092;2022-11-20T04:23:45;-0.30;99.90
57264;DHT22;43113;53.124;6.092;2022-11-20T04:26:12;-0.40;99.90
57264;DHT22;43113;53.124;6.092;2022-11-20T04:28:38;-0.40;99.90
57264;DHT22;43113;53.124;6.092;2022-11-20T04:31:05;-0.40;99.90
57264;DHT22;43113;53.124;6.092;2022-11-20T04:33:31;-0.40;99.90
57264;DHT22;43113;53.124;6.092;2022-11-20T04:36:01;-0.40;99.90
57264;DHT22;43113;53.124;6.092;2022-11-20T04:38:27;1.20;99.90
57264;DHT22;43113;53.124;6.092;2022-11-20T04:40:59;-0.50;99.90
57264;DHT22;43113;53.124;6.092;2022-11-20T04:43:25;-0.20;99.90
57264;DHT22;43113;53.124;6.092;2022-11-20T04:45:55;0.10;99.90
57264;DHT22;43113;53.124;6.092;2022-11-20T04:48:21;-0.60;99.90
57264;DHT22;43113;53.124;6.092;2022-11-20T04:50:47;0.90;99.90
57264;DHT22;43113;53.124;6.092;2022-11-20T04:53:13;0.20;99.90
57264;DHT22;43113;53.124;6.092;2022-11-20T04:55:39;-0.50;99.90
57264;DHT22;43113;53.124;6.092;2022-11-20T04:58:05;-0.50;99.90
57264;DHT22;43113;53.124;6.092;2022-11-20T05:00:31;-0.50;99.90
57264;DHT22;43113;53.124;6.092;2022-11-20T05:02:56;-0.60;99.90
57264;DHT22;43113;53.124;6.092;2022-11-20T05:05:22;-0.40;99.90
57264;DHT22;43113;53.124;6.092;2022-11-20T05:07:48;0.50;99.90
57264;DHT22;43113;53.124;6.092;2022-11-20T05:10:14;-0.70;99.90
57264;DHT22;43113;53.124;6.092;2022-11-20T05:12:40;-0.60;99.90
57264;DHT22;43113;53.124;6.092;2022-11-20T05:15:06;-0.60;99.90
57264;DHT22;43113;53.124;6.092;2022-11-20T05:17:31;-0.60;99.90
57264;DHT22;43113;53.124;6.092;2022-11-20T05:19:57;-0.60;99.90
57264;DHT22;43113;53.124;6.092;2022-11-20T05:22:23;-1.60;99.90
57264;DHT22;43113;53.124;6.092;2022-11-20T05:24:49;-0.70;99.90
57264;DHT22;43113;53.124;6.092;2022-11-20T05:27:14;-0.70;99.90
57264;DHT22;43113;53.124;6.092;2022-11-20T05:32:06;-0.70;99.90
57264;DHT22;43113;53.124;6.092;2022-11-20T05:34:35;-0.80;99.90
57264;DHT22;43113;53.124;6.092;2022-11-20T05:37:01;0.20;99.90
57264;DHT22;43113;53.124;6.092;2022-11-20T05:39:27;0.50;99.90
57264;DHT22;43113;53.124;6.092;2022-11-20T05:41:53;-0.70;99.90
57264;DHT22;43113;53.124;6.092;2022-11-20T05:44:39;0.60;99.90
57264;DHT22;43113;53.124;6.092;2022-11-20T05:47:05;-0.50;99.90
57264;DHT22;43113;53.124;6.092;2022-11-20T05:49:32;0.20;99.90
57264;DHT22;43113;53.124;6.092;2022-11-20T05:51:57;0.90;99.90
57264;DHT22;43113;53.124;6.092;2022-11-20T05:54:23;-1.50;99.90
57264;DHT22;43113;53.124;6.092;2022-11-20T05:56:49;-0.60;99.90
57264;DHT22;43113;53.124;6.092;2022-11-20T05:59:15;-0.60;99.90
57264;DHT22;43113;53.124;6.092;2022-11-20T06:01:40;-0.50;99.90
57264;DHT22;43113;53.124;6.092;2022-11-20T06:04:06;-0.50;99.90
57264;DHT22;43113;53.124;6.092;2022-11-20T06:06:32;1.10;99.90
57264;DHT22;43113;53.124;6.092;2022-11-20T06:08:58;-0.70;99.90
57264;DHT22;43113;53.124;6.092;2022-11-20T06:11:24;-0.40;99.90
57264;DHT22;43113;53.124;6.092;2022-11-20T06:13:50;-0.30;99.90
57264;DHT22;43113;53.124;6.092;2022-11-20T06:16:19;-0.30;99.90
57264;DHT22;43113;53.124;6.092;2022-11-20T06:18:46;1.10;99.90
57264;DHT22;43113;53.124;6.092;2022-11-20T06:21:18;1.50;99.90
57264;DHT22;43113;53.124;6.092;2022-11-20T06:23:44;-0.30;99.90
57264;DHT22;43113;53.124;6.092;2022-11-20T06:26:18;-0.30;99.90
57264;DHT22;43113;53.124;6.092;2022-11-20T06:28:44;0.90;99.90
57264;DHT22;43113;53.124;6.092;2022-11-20T06:31:12;-0.30;99.90
57264;DHT22;43113;53.124;6.092;2022-11-20T06:33:39;1.60;99.90
57264;DHT22;43113;53.124;6.092;2022-11-20T06:36:05;0.90;99.90
57264;DHT22;43113;53.124;6.092;2022-11-20T06:38:31;-0.30;99.90
57264;DHT22;43113;53.124;6.092;2022-11-20T06:40:57;-0.30;99.90
57264;DHT22;43113;53.124;6.092;2022-11-20T06:43:24;-0.40;99.90
57264;DHT22;43113;53.124;6.092;2022-11-20T06:45:55;-0.30;99.90
57264;DHT22;43113;53.124;6.092;2022-11-20T06:48:21;-0.20;99.90
57264;DHT22;43113;53.124;6.092;2022-11-20T06:50:47;0.20;99.90
57264;DHT22;43113;53.124;6.092;2022-11-20T06:53:13;-0.20;99.90
57264;DHT22;43113;53.124;6.092;2022-11-20T06:55:42;1.00;99.90
57264;DHT22;43113;53.124;6.092;2022-11-20T06:58:09;-0.10;99.90
57264;DHT22;43113;53.124;6.092;2022-11-20T07:00:35;-0.30;99.90
57264;DHT22;43113;53.124;6.092;2022-11-20T07:03:05;0.00;99.90
57264;DHT22;43113;53.124;6.092;2022-11-20T07:05:31;-0.50;99.90
57264;DHT22;43113;53.124;6.092;2022-11-20T07:07:57;-0.50;99.90
57264;DHT22;43113;53.124;6.092;2022-11-20T07:10:23;-0.60;99.90
57264;DHT22;43113;53.124;6.092;2022-11-20T07:12:50;-1.70;99.90
57264;DHT22;43113;53.124;6.092;2022-11-20T07:15:17;-0.50;99.90
57264;DHT22;43113;53.124;6.092;2022-11-20T07:20:09;-0.50;99.90
57264;DHT22;43113;53.124;6.092;2022-11-20T07:22:35;-0.50;99.90
57264;DHT22;43113;53.124;6.092;2022-11-20T07:25:01;0.30;99.90
57264;DHT22;43113;53.124;6.092;2022-11-20T07:29:53;-0.40;99.90
57264;DHT22;43113;53.124;6.092;2022-11-20T07:32:19;-0.50;99.90
57264;DHT22;43113;53.124;6.092;2022-11-20T07:37:11;-0.40;99.90
57264;DHT22;43113;53.124;6.092;2022-11-20T07:39:37;1.30;99.90
57264;DHT22;43113;53.124;6.092;2022-11-20T07:42:06;-0.20;99.90
57264;DHT22;43113;53.124;6.092;2022-11-20T07:44:32;-0.30;99.90
57264;DHT22;43113;53.124;6.092;2022-11-20T07:46:57;1.30;99.90
57264;DHT22;43113;53.124;6.092;2022-11-20T07:49:23;2.00;99.90
57264;DHT22;43113;53.124;6.092;2022-11-20T07:51:53;1.50;99.90
57264;DHT22;43113;53.124;6.092;2022-11-20T07:54:20;1.10;99.90
57264;DHT22;43113;53.124;6.092;2022-11-20T07:56:46;1.40;99.90
57264;DHT22;43113;53.124;6.092;2022-11-20T07:59:12;0.00;99.90
57264;DHT22;43113;53.124;6.092;2022-11-20T08:01:38;1.40;99.90
57264;DHT22;43113;53.124;6.092;2022-11-20T08:04:04;-0.20;99.90
57264;DHT22;43113;53.124;6.092;2022-11-20T08:08:56;1.70;99.90
57264;DHT22;43113;53.124;6.092;2022-11-20T08:11:22;-0.10;99.90
57264;DHT22;43113;53.124;6.092;2022-11-20T08:14:06;1.60;99.90
57264;DHT22;43113;53.124;6.092;2022-11-20T08:16:45;0.00;99.90
57264;DHT22;43113;53.124;6.092;2022-11-20T08:19:12;-0.10;99.90
57264;DHT22;43113;53.124;6.092;2022-11-20T08:21:38;-0.20;99.90
57264;DHT22;43113;53.124;6.092;2022-11-20T08:24:04;0.00;99.90
57264;DHT22;43113;53.124;6.092;2022-11-20T08:26:31;0.00;99.90
57264;DHT22;43113;53.124;6.092;2022-11-20T08:28:57;0.10;99.90
57264;DHT22;43113;53.124;6.092;2022-11-20T08:31:23;1.00;99.90
57264;DHT22;43113;53.124;6.092;2022-11-20T08:33:50;0.10;99.90
57264;DHT22;43113;53.124;6.092;2022-11-20T08:36:16;3.10;99.90
57264;DHT22;43113;53.124;6.092;2022-11-20T08:38:46;0.20;99.90
57264;DHT22;43113;53.124;6.092;2022-11-20T08:41:11;0.30;99.90
57264;DHT22;43113;53.124;6.092;2022-11-20T08:44:09;0.40;99.90
57264;DHT22;43113;53.124;6.092;2022-11-20T08:46:42;0.50;99.90
57264;DHT22;43113;53.124;6.092;2022-11-20T08:49:11;0.60;99.90
57264;DHT22;43113;53.124;6.092;2022-11-20T08:51:37;0.60;99.90
57264;DHT22;43113;53.124;6.092;2022-11-20T08:54:04;0.60;99.90
57264;DHT22;43113;53.124;6.092;2022-11-20T08:56:30;0.70;99.90
57264;DHT22;43113;53.124;6.092;2022-11-20T08:58:56;1.10;99.90
57264;DHT22;43113;53.124;6.092;2022-11-20T09:01:23;0.80;99.90
57264;DHT22;43113;53.124;6.092;2022-11-20T09:03:49;0.80;99.90
57264;DHT22;43113;53.124;6.092;2022-11-20T09:06:15;1.00;99.90
57264;DHT22;43113;53.124;6.092;2022-11-20T09:08:41;1.20;99.90
57264;DHT22;43113;53.124;6.092;2022-11-20T09:11:08;1.30;99.90
57264;DHT22;43113;53.124;6.092;2022-11-20T09:13:35;2.20;99.90
57264;DHT22;43113;53.124;6.092;2022-11-20T09:16:06;1.50;99.90
57264;DHT22;43113;53.124;6.092;2022-11-20T09:18:34;1.50;99.90
57264;DHT22;43113;53.124;6.092;2022-11-20T09:21:04;1.40;99.90
57264;DHT22;43113;53.124;6.092;2022-11-20T09:23:37;1.40;99.90
57264;DHT22;43113;53.124;6.092;2022-11-20T09:26:04;3.30;99.90
57264;DHT22;43113;53.124;6.092;2022-11-20T09:28:30;1.40;99.90
57264;DHT22;43113;53.124;6.092;2022-11-20T09:30:56;1.40;99.90
57264;DHT22;43113;53.124;6.092;2022-11-20T09:33:22;2.80;99.90
57264;DHT22;43113;53.124;6.092;2022-11-20T09:35:48;0.40;99.90
57264;DHT22;43113;53.124;6.092;2022-11-20T09:38:14;1.60;99.90
57264;DHT22;43113;53.124;6.092;2022-11-20T09:47:02;1.80;99.90
57264;DHT22;43113;53.124;6.092;2022-11-20T09:53:07;2.00;99.90
57264;DHT22;43113;53.124;6.092;2022-11-20T09:55:22;2.10;99.90
57264;DHT22;43113;53.124;6.092;2022-11-20T09:57:51;2.20;99.90
57264;DHT22;43113;53.124;6.092;2022-11-20T10:00:18;2.20;99.90
57264;DHT22;43113;53.124;6.092;2022-11-20T10:05:27;2.30;99.90
57264;DHT22;43113;53.124;6.092;2022-11-20T10:19:02;3.20;99.90
57264;DHT22;43113;53.124;6.092;2022-11-20T10:22:00;3.40;99.90
57264;DHT22;43113;53.124;6.092;2022-11-20T10:30:17;3.80;99.90
57264;DHT22;43113;53.124;6.092;2022-11-20T10:32:47;3.80;99.90
57264;DHT22;43113;53.124;6.092;2022-11-20T10:37:44;4.20;99.90
57264;DHT22;43113;53.124;6.092;2022-11-20T10:40:38;4.10;99.90
57264;DHT22;43113;53.124;6.092;2022-11-20T10:43:14;4.30;99.90
57264;DHT22;43113;53.124;6.092;2022-11-20T10:46:18;5.80;99.90
57264;DHT22;43113;53.124;6.092;2022-11-20T10:48:46;4.50;99.90
57264;DHT22;43113;53.124;6.092;2022-11-20T10:54:30;4.50;99.90
57264;DHT22;43113;53.124;6.092;2022-11-20T10:57:11;5.50;99.90
57264;DHT22;43113;53.124;6.092;2022-11-20T11:02:29;4.40;99.90
57264;DHT22;43113;53.124;6.092;2022-11-20T11:04:58;4.90;99.90
57264;DHT22;43113;53.124;6.092;2022-11-20T11:07:38;4.90;99.90
57264;DHT22;43113;53.124;6.092;2022-11-20T11:12:51;4.40;99.90
57264;DHT22;43113;53.124;6.092;2022-11-20T11:17:52;4.50;99.90
57264;DHT22;43113;53.124;6.092;2022-11-20T11:20:21;6.10;99.90
57264;DHT22;43113;53.124;6.092;2022-11-20T11:22:50;5.30;99.90
57264;DHT22;43113;53.124;6.092;2022-11-20T11:25:25;5.60;99.90
57264;DHT22;43113;53.124;6.092;2022-11-20T11:27:52;5.00;99.90
57264;DHT22;43113;53.124;6.092;2022-11-20T11:30:19;5.00;99.90
57264;DHT22;43113;53.124;6.092;2022-11-20T11:32:46;4.80;99.90
57264;DHT22;43113;53.124;6.092;2022-11-20T11:37:48;4.90;99.90
57264;DHT22;43113;53.124;6.092;2022-11-20T11:40:15;6.30;99.90
57264;DHT22;43113;53.124;6.092;2022-11-20T11:42:46;5.00;99.90
57264;DHT22;43113;53.124;6.092;2022-11-20T11:45:16;5.50;99.90
57264;DHT22;43113;53.124;6.092;2022-11-20T11:55:28;5.00;99.90
57264;DHT22;43113;53.124;6.092;2022-11-20T12:01:01;5.00;99.90
57264;DHT22;43113;53.124;6.092;2022-11-20T12:03:39;4.90;99.90
57264;DHT22;43113;53.124;6.092;2022-11-20T12:06:17;4.90;99.90
57264;DHT22;43113;53.124;6.092;2022-11-20T12:08:52;4.70;99.90
57264;DHT22;43113;53.124;6.092;2022-11-20T12:11:33;4.70;99.90
57264;DHT22;43113;53.124;6.092;2022-11-20T12:16:37;4.60;99.90
57264;DHT22;43113;53.124;6.092;2022-11-20T12:19:10;4.50;99.90
57264;DHT22;43113;53.124;6.092;2022-11-20T12:21:43;4.40;99.90
57264;DHT22;43113;53.124;6.092;2022-11-20T12:29:58;5.00;99.90
57264;DHT22;43113;53.124;6.092;2022-11-20T12:43:24;4.40;99.90
57264;DHT22;43113;53.124;6.092;2022-11-20T13:02:03;4.10;99.90
57264;DHT22;43113;53.124;6.092;2022-11-20T13:07:19;4.00;99.90
57264;DHT22;43113;53.124;6.092;2022-11-20T13:09:48;4.00;99.90
57264;DHT22;43113;53.124;6.092;2022-11-20T13:12:35;5.30;99.90
57264;DHT22;43113;53.124;6.092;2022-11-20T13:18:04;3.90;99.90
57264;DHT22;43113;53.124;6.092;2022-11-20T13:20:31;3.80;99.90
57264;DHT22;43113;53.124;6.092;2022-11-20T13:22:58;2.20;99.90
57264;DHT22;43113;53.124;6.092;2022-11-20T13:25:30;3.90;99.90
57264;DHT22;43113;53.124;6.092;2022-11-20T13:27:59;3.70;99.90
57264;DHT22;43113;53.124;6.092;2022-11-20T13:30:29;4.20;99.90
57264;DHT22;43113;53.124;6.092;2022-11-20T13:33:06;3.70;99.90
57264;DHT22;43113;53.124;6.092;2022-11-20T13:35:41;3.70;99.90
57264;DHT22;43113;53.124;6.092;2022-11-20T13:38:12;4.20;99.90
57264;DHT22;43113;53.124;6.092;2022-11-20T13:43:37;3.50;99.90
57264;DHT22;43113;53.124;6.092;2022-11-20T13:46:06;3.40;99.90
57264;DHT22;43113;53.124;6.092;2022-11-20T13:48:47;4.80;99.90
57264;DHT22;43113;53.124;6.092;2022-11-20T13:51:34;3.30;99.90
57264;DHT22;43113;53.124;6.092;2022-11-20T13:57:01;3.20;99.90
57264;DHT22;43113;53.124;6.092;2022-11-20T14:02:20;3.10;99.90
57264;DHT22;43113;53.124;6.092;2022-11-20T14:04:52;3.00;99.90
57264;DHT22;43113;53.124;6.092;2022-11-20T14:07:31;3.50;99.90
57264;DHT22;43113;53.124;6.092;2022-11-20T14:09:57;3.70;99.90
57264;DHT22;43113;53.124;6.092;2022-11-20T14:12:35;4.30;99.90
57264;DHT22;43113;53.124;6.092;2022-11-20T14:15:02;2.90;99.90
57264;DHT22;43113;53.124;6.092;2022-11-20T14:17:33;3.90;99.90
57264;DHT22;43113;53.124;6.092;2022-11-20T14:20:03;3.50;99.90
57264;DHT22;43113;53.124;6.092;2022-11-20T14:22:31;2.80;99.90
57264;DHT22;43113;53.124;6.092;2022-11-20T14:27:40;2.70;99.90
57264;DHT22;43113;53.124;6.092;2022-11-20T14:30:16;2.70;99.90
57264;DHT22;43113;53.124;6.092;2022-11-20T14:32:44;2.70;99.90
57264;DHT22;43113;53.124;6.092;2022-11-20T14:35:17;2.20;99.90
57264;DHT22;43113;53.124;6.092;2022-11-20T14:40:30;2.60;99.90
57264;DHT22;43113;53.124;6.092;2022-11-20T14:42:57;2.60;99.90
57264;DHT22;43113;53.124;6.092;2022-11-20T14:45:24;2.60;99.90
57264;DHT22;43113;53.124;6.092;2022-11-20T14:47:53;2.60;99.90
57264;DHT22;43113;53.124;6.092;2022-11-20T14:50:28;2.60;99.90
57264;DHT22;43113;53.124;6.092;2022-11-20T14:53:06;3.70;99.90
57264;DHT22;43113;53.124;6.092;2022-11-20T14:58:05;2.50;99.90
57264;DHT22;43113;53.124;6.092;2022-11-20T15:00:33;2.50;99.90
57264;DHT22;43113;53.124;6.092;2022-11-20T15:02:58;2.50;99.90
57264;DHT22;43113;53.124;6.092;2022-11-20T15:05:46;2.50;99.90
57264;DHT22;43113;53.124;6.092;2022-11-20T15:08:12;2.40;99.90
57264;DHT22;43113;53.124;6.092;2022-11-20T15:10:44;2.40;99.90
57264;DHT22;43113;53.124;6.092;2022-11-20T15:13:13;2.60;99.90
57264;DHT22;43113;53.124;6.092;2022-11-20T15:18:13;2.30;99.90
57264;DHT22;43113;53.124;6.092;2022-11-20T15:20:41;3.70;99.90
57264;DHT22;43113;53.124;6.092;2022-11-20T15:23:12;3.90;99.90
57264;DHT22;43113;53.124;6.092;2022-11-20T15:25:39;3.40;99.90
57264;DHT22;43113;53.124;6.092;2022-11-20T15:28:19;3.50;99.90
57264;DHT22;43113;53.124;6.092;2022-11-20T15:30:47;2.00;99.90
57264;DHT22;43113;53.124;6.092;2022-11-20T15:33:14;1.90;99.90
57264;DHT22;43113;53.124;6.092;2022-11-20T15:35:40;2.10;99.90
57264;DHT22;43113;53.124;6.092;2022-11-20T15:38:06;2.20;99.90
57264;DHT22;43113;53.124;6.092;2022-11-20T15:40:31;2.00;99.90
57264;DHT22;43113;53.124;6.092;2022-11-20T15:42:57;1.90;99.90
57264;DHT22;43113;53.124;6.092;2022-11-20T15:46:03;2.80;99.90
57264;DHT22;43113;53.124;6.092;2022-11-20T15:48:35;2.00;99.90
57264;DHT22;43113;53.124;6.092;2022-11-20T15:53:31;2.00;99.90
57264;DHT22;43113;53.124;6.092;2022-11-20T15:55:56;2.00;99.90
57264;DHT22;43113;53.124;6.092;2022-11-20T15:58:22;2.00;99.90
57264;DHT22;43113;53.124;6.092;2022-11-20T16:00:50;2.50;99.90
57264;DHT22;43113;53.124;6.092;2022-11-20T16:03:16;2.00;99.90
57264;DHT22;43113;53.124;6.092;2022-11-20T16:05:43;2.00;99.90
57264;DHT22;43113;53.124;6.092;2022-11-20T16:08:09;1.90;99.90
57264;DHT22;43113;53.124;6.092;2022-11-20T16:10:35;1.90;99.90
57264;DHT22;43113;53.124;6.092;2022-11-20T16:13:01;1.80;99.90
57264;DHT22;43113;53.124;6.092;2022-11-20T16:15:51;1.90;99.90
57264;DHT22;43113;53.124;6.092;2022-11-20T16:18:20;1.90;99.90
57264;DHT22;43113;53.124;6.092;2022-11-20T16:20:50;1.90;99.90
57264;DHT22;43113;53.124;6.092;2022-11-20T16:23:16;3.30;99.90
57264;DHT22;43113;53.124;6.092;2022-11-20T16:25:43;3.10;99.90
57264;DHT22;43113;53.124;6.092;2022-11-20T16:28:09;2.60;99.90
57264;DHT22;43113;53.124;6.092;2022-11-20T16:30:35;2.20;99.90
57264;DHT22;43113;53.124;6.092;2022-11-20T16:33:01;1.90;99.90
57264;DHT22;43113;53.124;6.092;2022-11-20T16:35:28;1.90;99.90
57264;DHT22;43113;53.124;6.092;2022-11-20T16:37:55;1.90;99.90
57264;DHT22;43113;53.124;6.092;2022-11-20T16:40:21;3.20;99.90
57264;DHT22;43113;53.124;6.092;2022-11-20T16:42:47;1.90;99.90
57264;DHT22;43113;53.124;6.092;2022-11-20T16:45:13;1.90;99.90
57264;DHT22;43113;53.124;6.092;2022-11-20T16:47:39;1.90;99.90
57264;DHT22;43113;53.124;6.092;2022-11-20T16:50:05;2.30;99.90
57264;DHT22;43113;53.124;6.092;2022-11-20T16:52:31;1.90;99.90
57264;DHT22;43113;53.124;6.092;2022-11-20T16:54:57;1.90;99.90
57264;DHT22;43113;53.124;6.092;2022-11-20T16:57:24;2.10;99.90
57264;DHT22;43113;53.124;6.092;2022-11-20T16:59:49;3.00;99.90
57264;DHT22;43113;53.124;6.092;2022-11-20T17:02:15;1.90;99.90
57264;DHT22;43113;53.124;6.092;2022-11-20T17:04:41;1.90;99.90
57264;DHT22;43113;53.124;6.092;2022-11-20T17:07:07;1.80;99.90
57264;DHT22;43113;53.124;6.092;2022-11-20T17:09:33;3.00;99.90
57264;DHT22;43113;53.124;6.092;2022-11-20T17:11:58;1.80;99.90
57264;DHT22;43113;53.124;6.092;2022-11-20T17:14:24;1.90;99.90
57264;DHT22;43113;53.124;6.092;2022-11-20T17:16:50;1.80;99.90
57264;DHT22;43113;53.124;6.092;2022-11-20T17:19:15;1.80;99.90
57264;DHT22;43113;53.124;6.092;2022-11-20T17:21:41;1.80;99.90
57264;DHT22;43113;53.124;6.092;2022-11-20T17:24:10;1.80;99.90
57264;DHT22;43113;53.124;6.092;2022-11-20T17:26:37;1.80;99.90
57264;DHT22;43113;53.124;6.092;2022-11-20T17:31:35;1.70;99.90
57264;DHT22;43113;53.124;6.092;2022-11-20T17:34:03;3.20;99.90
57264;DHT22;43113;53.124;6.092;2022-11-20T17:36:29;1.70;99.90
57264;DHT22;43113;53.124;6.092;2022-11-20T17:38:58;1.70;99.90
57264;DHT22;43113;53.124;6.092;2022-11-20T17:41:27;1.30;99.90
57264;DHT22;43113;53.124;6.092;2022-11-20T17:43:58;1.60;99.90
57264;DHT22;43113;53.124;6.092;2022-11-20T17:46:27;1.40;99.90
57264;DHT22;43113;53.124;6.092;2022-11-20T17:48:54;1.60;99.90
57264;DHT22;43113;53.124;6.092;2022-11-20T17:51:25;1.60;99.90
57264;DHT22;43113;53.124;6.092;2022-11-20T17:53:54;1.70;99.90
57264;DHT22;43113;53.124;6.092;2022-11-20T17:56:20;1.60;99.90
57264;DHT22;43113;53.124;6.092;2022-11-20T17:59:09;1.60;99.90
57264;DHT22;43113;53.124;6.092;2022-11-20T18:01:35;1.60;99.90
57264;DHT22;43113;53.124;6.092;2022-11-20T18:04:02;1.60;99.90
57264;DHT22;43113;53.124;6.092;2022-11-20T18:06:29;1.60;99.90
57264;DHT22;43113;53.124;6.092;2022-11-20T18:08:57;1.60;99.90
57264;DHT22;43113;53.124;6.092;2022-11-20T18:11:28;1.60;99.90
57264;DHT22;43113;53.124;6.092;2022-11-20T18:13:56;1.60;99.90
57264;DHT22;43113;53.124;6.092;2022-11-20T18:16:43;1.50;99.90
57264;DHT22;43113;53.124;6.092;2022-11-20T18:19:12;1.60;99.90